Chemical Hunter — H8QG — position and weather

sailwx.info

Track history (hours):
 
Tides and Currents Weather Stations Pressure Air Temp Water Temp Dewpoint Dewpoint Depression Visibility Wind Speed Wind Dir Waves Ship Positions

Chemical Hunter

Last reported at 2018-Jun-21 23:08 UTC. Time now 2018-Jun-22 03:28 UTC.
Position N 29°45' W 095°06'.

Length 134 m; draft 8.7 m.

Type: Ship. MMSI: 374026000.

Date/timePositionNaut miles runAvg speedWind from/ knotsBaromVisibWave heightAir tempDewpointWater temp
2018-Jun-21 23:08N 29°45' W 095°06'0 0.1
2018-Jun-21 23:00N 29°45' W 095°06'2 3.3
2018-Jun-21 22:30N 29°46' W 095°04'4 7.6
2018-Jun-21 22:00N 29°43' W 095°01'4 8.8
2018-Jun-21 21:30N 29°40' W 094°58'510.8
2018-Jun-21 21:00N 29°35' W 094°56'611.2
2018-Jun-21 20:30N 29°30' W 094°52'611.6
2018-Jun-21 20:00N 29°25' W 094°49'510.9
2018-Jun-21 19:30N 29°21' W 094°45'611.1
2018-Jun-21 19:00N 29°19' W 094°39'4 8.6
2018-Jun-21 18:30N 29°17' W 094°35'2 4.3
2018-Jun-21 18:00N 29°19' W 094°33'1 1.1
2018-Jun-21 17:30N 29°19' W 094°33'0 0.0
2018-Jun-21 16:27N 29°19' W 094°33'0 0.0
2018-Jun-21 15:57N 29°19' W 094°33'0 0.0
2018-Jun-21 15:30N 29°19' W 094°33'0 0.0
2018-Jun-21 12:18N 29°19' W 094°33'0 0.0
2018-Jun-21 12:00N 29°19' W 094°33'0 0.0
2018-Jun-21 11:30N 29°19' W 094°33'0 0.0
2018-Jun-21 08:36N 29°19' W 094°33'0 0.0
2018-Jun-21 08:24N 29°19' W 094°33'0 0.0
2018-Jun-21 07:57N 29°19' W 094°33'0 0.1
2018-Jun-21 07:18N 29°19' W 094°33'0 0.0
2018-Jun-21 05:18N 29°19' W 094°33'0 0.0
2018-Jun-21 04:51N 29°19' W 094°33'0 0.0
2018-Jun-21 04:27N 29°19' W 094°33'0 0.0
2018-Jun-21 03:16N 29°19' W 094°33'8 7.7
2018-Jun-21 02:15N 29°21' W 094°42'312.9
2018-Jun-21 02:00N 29°21' W 094°46'612.0
2018-Jun-21 01:30N 29°25' W 094°50'611.7
2018-Jun-21 01:00N 29°31' W 094°53'611.8
2018-Jun-21 00:30N 29°36' W 094°57'4 7.7
2018-Jun-21 00:00N 29°37' W 095°01'1 1.5
2018-Jun-20 23:30N 29°37' W 095°02'0 0.0
2018-Jun-20 22:59N 29°37' W 095°02'0 0.0
2018-Jun-20 22:29N 29°37' W 095°02'0 0.0
2018-Jun-20 21:56N 29°37' W 095°02'0 0.0
2018-Jun-19 23:22N 29°37' W 095°02'0 0.3
2018-Jun-19 23:01N 29°37' W 095°01'2 3.1
2018-Jun-19 22:30N 29°37' W 094°60'4 7.2
2018-Jun-19 21:59N 29°35' W 094°56'511.1
2018-Jun-19 21:30N 29°31' W 094°53'611.3
2018-Jun-19 21:00N 29°25' W 094°50'510.7
2018-Jun-19 20:31N 29°21' W 094°47'510.4
2018-Jun-19 20:00N 29°20' W 094°41'510.2
2018-Jun-19 19:30N 29°17' W 094°36'2 4.4
2018-Jun-19 18:59N 29°18' W 094°34'1 1.5
2018-Jun-19 18:17N 29°19' W 094°33'0 0.0
2018-Jun-19 16:08N 29°19' W 094°33'0 0.0
2018-Jun-19 15:53N 29°19' W 094°33'0 0.0
2018-Jun-19 15:26N 29°19' W 094°33'0 0.0
2018-Jun-19 14:44N 29°19' W 094°33'0 0.0
2018-Jun-19 14:29N 29°19' W 094°33'0 0.0
2018-Jun-19 13:50N 29°19' W 094°33'0 0.0
2018-Jun-19 13:14N 29°19' W 094°33'0 0.0
2018-Jun-19 12:41N 29°19' W 094°33'0 0.0
2018-Jun-19 12:26N 29°19' W 094°33'0 0.0
2018-Jun-19 10:08N 29°19' W 094°33'0 0.0
2018-Jun-19 09:56N 29°19' W 094°33'0 0.0
2018-Jun-19 09:26N 29°19' W 094°33'0 0.1
2018-Jun-19 08:50N 29°19' W 094°33'0 0.0
2018-Jun-18 17:41N 29°19' W 094°33'0 0.3
2018-Jun-18 17:29N 29°19' W 094°33'2 3.9
2018-Jun-18 16:55N 29°17' W 094°33'4 8.7
2018-Jun-18 16:30N 29°14' W 094°31'  
Track history (hours):
 
Tides and Currents Weather Stations Pressure Air Temp Water Temp Dewpoint Dewpoint Depression Visibility Wind Speed Wind Dir Waves Ship Positions

Chemical Hunter

Last reported at 2018-Jun-21 23:08 UTC. Time now 2018-Jun-22 03:28 UTC.
Position N 29°45' W 095°06'.

Length 134 m; draft 8.7 m.

Type: Ship. MMSI: 374026000.

Date/timePositionNaut miles runAvg speedWind from/ knotsBaromVisibWave heightAir tempDewpointWater temp
2018-Jun-21 23:08N 29°45' W 095°06'0 0.1
2018-Jun-21 23:00N 29°45' W 095°06'2 3.3
2018-Jun-21 22:30N 29°46' W 095°04'4 7.6
2018-Jun-21 22:00N 29°43' W 095°01'4 8.8
2018-Jun-21 21:30N 29°40' W 094°58'510.8
2018-Jun-21 21:00N 29°35' W 094°56'611.2
2018-Jun-21 20:30N 29°30' W 094°52'611.6
2018-Jun-21 20:00N 29°25' W 094°49'510.9
2018-Jun-21 19:30N 29°21' W 094°45'611.1
2018-Jun-21 19:00N 29°19' W 094°39'4 8.6
2018-Jun-21 18:30N 29°17' W 094°35'2 4.3
2018-Jun-21 18:00N 29°19' W 094°33'1 1.1
2018-Jun-21 17:30N 29°19' W 094°33'0 0.0
2018-Jun-21 16:27N 29°19' W 094°33'0 0.0
2018-Jun-21 15:57N 29°19' W 094°33'0 0.0
2018-Jun-21 15:30N 29°19' W 094°33'0 0.0
2018-Jun-21 12:18N 29°19' W 094°33'0 0.0
2018-Jun-21 12:00N 29°19' W 094°33'0 0.0
2018-Jun-21 11:30N 29°19' W 094°33'0 0.0
2018-Jun-21 08:36N 29°19' W 094°33'0 0.0
2018-Jun-21 08:24N 29°19' W 094°33'0 0.0
2018-Jun-21 07:57N 29°19' W 094°33'0 0.1
2018-Jun-21 07:18N 29°19' W 094°33'0 0.0
2018-Jun-21 05:18N 29°19' W 094°33'0 0.0
2018-Jun-21 04:51N 29°19' W 094°33'0 0.0
2018-Jun-21 04:27N 29°19' W 094°33'0 0.0
2018-Jun-21 03:16N 29°19' W 094°33'8 7.7
2018-Jun-21 02:15N 29°21' W 094°42'312.9
2018-Jun-21 02:00N 29°21' W 094°46'612.0
2018-Jun-21 01:30N 29°25' W 094°50'611.7
2018-Jun-21 01:00N 29°31' W 094°53'611.8
2018-Jun-21 00:30N 29°36' W 094°57'4 7.7
2018-Jun-21 00:00N 29°37' W 095°01'1 1.5
2018-Jun-20 23:30N 29°37' W 095°02'0 0.0
2018-Jun-20 22:59N 29°37' W 095°02'0 0.0
2018-Jun-20 22:29N 29°37' W 095°02'0 0.0
2018-Jun-20 21:56N 29°37' W 095°02'0 0.0
2018-Jun-19 23:22N 29°37' W 095°02'0 0.3
2018-Jun-19 23:01N 29°37' W 095°01'2 3.1
2018-Jun-19 22:30N 29°37' W 094°60'4 7.2
2018-Jun-19 21:59N 29°35' W 094°56'511.1
2018-Jun-19 21:30N 29°31' W 094°53'611.3
2018-Jun-19 21:00N 29°25' W 094°50'510.7
2018-Jun-19 20:31N 29°21' W 094°47'510.4
2018-Jun-19 20:00N 29°20' W 094°41'510.2
2018-Jun-19 19:30N 29°17' W 094°36'2 4.4
2018-Jun-19 18:59N 29°18' W 094°34'1 1.5
2018-Jun-19 18:17N 29°19' W 094°33'0 0.0
2018-Jun-19 16:08N 29°19' W 094°33'0 0.0
2018-Jun-19 15:53N 29°19' W 094°33'0 0.0
2018-Jun-19 15:26N 29°19' W 094°33'0 0.0
2018-Jun-19 14:44N 29°19' W 094°33'0 0.0
2018-Jun-19 14:29N 29°19' W 094°33'0 0.0
2018-Jun-19 13:50N 29°19' W 094°33'0 0.0
2018-Jun-19 13:14N 29°19' W 094°33'0 0.0
2018-Jun-19 12:41N 29°19' W 094°33'0 0.0
2018-Jun-19 12:26N 29°19' W 094°33'0 0.0
2018-Jun-19 10:08N 29°19' W 094°33'0 0.0
2018-Jun-19 09:56N 29°19' W 094°33'0 0.0
2018-Jun-19 09:26N 29°19' W 094°33'0 0.1
2018-Jun-19 08:50N 29°19' W 094°33'0 0.0
2018-Jun-18 17:41N 29°19' W 094°33'0 0.3
2018-Jun-18 17:29N 29°19' W 094°33'2 3.9
2018-Jun-18 16:55N 29°17' W 094°33'4 8.7
2018-Jun-18 16:30N 29°14' W 094°31'  

Dump ship's entire track history